Moran, MI (49760)

11:13 PM EST on February 12, 2016 (GMT -0500)
MesoWest | | Change Station
CLOSE
Current Station
Personal Weather Station
Location: Moran, MI
Elevation: 605 ft
Nearby Weather Stations
Active Advisory: Winter Weather Advisory

Elev 605 ft 46.01 °N, 85.01 °W | Updated 43 minutes ago

Overcast
Overcast
-1 °F
Feels Like -14 °F
N
7
Wind Variable Wind from NE
Gusts 14.0 mph

Today
High -- | Low -- °F
--% Chance of Precip.
Yesterday
High -- | Low -- °F
Precip. -- in
Pressure 30.26 in
Visibility 10.0 miles
Clouds Scattered Clouds 1900 ft
Scattered Clouds 2800 ft
Windchill -14 °F
Dew Point -7 °F
Humidity 75%
Rainfall in
Snow Depth Not available.
7:47 AM 6:00 PM
Waxing Crescent, 26% visible
METAR KMCD 130356Z AUTO 03013G22KT 10SM SCT019 SCT028 M22/M27 A3026 RMK AO2 T12171270 410701217
Pressure 30.26 in
Visibility 10.0 miles
Clouds Scattered Clouds 1900 ft
Scattered Clouds 2800 ft
Windchill -14 °F
Dew Point -7 °F
Humidity 75%
Rainfall in
Snow Depth Not available.
7:47 AM 6:00 PM
Waxing Crescent, 26% visible
METAR KMCD 130356Z AUTO 03013G22KT 10SM SCT019 SCT028 M22/M27 A3026 RMK AO2 T12171270 410701217

10-Day Weather Forecast

Almanac

Astronomy

Feb. 12, 2016 Rise Set
Actual Time
Civil Twilight
Nautical Twilight
Astronomical Twilight
Moon
Length of Visible Light
Length of Day
Tomorrow will be .
, % of the Moon is Illuminated

Today's Extremes

State Highs State Lows

Community

WunderPhotos

Upload Photos

1,892,499 photos uploaded!

WunderBlog® & News

Nearby

Air Quality

  Air Quality AQ Index Pollutant
Not available.

Snow Depth

Station Depth Elevation

Earthquake Activity

City Distance Mag. Time & Date
Minimum magnitude displayed is 2.5.

Coastal Water Temperatures

Place Temperature

Stations

Nearby Weather Stations

Station Location Temp. Windchill Dew Point Humidity Wind Precip. Elev Updated Type
                   

Watches & Warnings

Winter Weather Advisory
Issued: 9:14 PM EST Feb. 12, 2016 – National Weather Service

... Winter Weather Advisory remains in effect until noon EST
Saturday...

* lake effect snow showers will continue overnight... primarily
west of Interstate 75.

* Total nighttime snow accumulations of 1 to 3 inches can be
expected in western Chippewa and Mackinac counties.

* Gusty northwest winds will result in blowing and drifting snow.

* Look for periods of very poor visibility.

* Wind chills will approach 30 below zero tonight... with the
coldest readings in the St Marys River valley.

Precautionary/preparedness actions...

A Winter Weather Advisory for snow means periods of snow will
cause primarily travel difficulties. Be prepared for snow covered
roads and limited visibilities... and use caution while driving.
For the latest Road conditions... go to the mdot website at
Michigan.Gov.

Extreme wind chills may result in frostbite and lead to
hypothermia if precautions are not taken. If you must venture
outdoors... make sure you wear a hat and gloves.